Gillette, WY (82716)

12:18 PM MST on February 10, 2016 (GMT -0700)
Gillette-Campbell County | | Change Station
CLOSE
Current Station
Airport
Location: Gillette,
Elevation: 4364 ft
Nearby Weather Stations

Elev 4364 ft 44.34 °N, 105.54 °W | Updated 25 minutes ago

Partly Cloudy
Partly Cloudy
55 °F
Feels Like 55 °F
N
23
Wind Variable Wind from NNW
Gusts 32 mph

Today
High -- | Low -- °F
--% Chance of Precip.
Yesterday
High -- | Low -- °F
Precip. -- in
Pressure 30.02 in
Visibility 10.0 miles
Clouds Clear
Dew Point 22 °F
Humidity 28%
Rainfall 0.00 in
Snow Depth Not available.
7:10 AM 5:23 PM
Waxing Crescent, 7% visible
METAR KGCC 101853Z AUTO 33020G28KT 10SM CLR 13/M06 A3004 RMK AO2 PK WND 32028/1837 SLP166 T01281056
Pressure 30.02 in
Visibility 10.0 miles
Clouds Clear
Dew Point 22 °F
Humidity 28%
Rainfall 0.00 in
Snow Depth Not available.
7:10 AM 5:23 PM
Waxing Crescent, 7% visible
METAR KGCC 101853Z AUTO 33020G28KT 10SM CLR 13/M06 A3004 RMK AO2 PK WND 32028/1837 SLP166 T01281056

10-Day Weather Forecast

Almanac

Astronomy

Feb. 10, 2016 Rise Set
Actual Time
Civil Twilight
Nautical Twilight
Astronomical Twilight
Moon
Length of Visible Light
Length of Day
Tomorrow will be .
, % of the Moon is Illuminated

Today's Extremes

State Highs State Lows

Community

WunderPhotos

Upload Photos

1,891,922 photos uploaded!

WunderBlog® & News

Nearby

Air Quality

  Air Quality AQ Index Pollutant
Not available.

Snow Depth

Station Depth Elevation

Earthquake Activity

City Distance Mag. Time & Date
Minimum magnitude displayed is 2.5.

Coastal Water Temperatures

Place Temperature

Stations

Nearby Weather Stations

Station Location Temp. Windchill Dew Point Humidity Wind Precip. Elev Updated Type
                   

Watches & Warnings

There are currently no watches in effect.